sensor_id;sensor_type;location;lat;lon;timestamp;P1;durP1;ratioP1;P2;durP2;ratioP2
10934;SDS011;5520;45.752;4.874;2023-08-12T00:01:01;2.63;;;2.33;;
10934;SDS011;5520;45.752;4.874;2023-08-12T00:03:29;4.15;;;3.25;;
10934;SDS011;5520;45.752;4.874;2023-08-12T00:05:57;4.93;;;2.22;;
10934;SDS011;5520;45.752;4.874;2023-08-12T00:08:26;3.08;;;1.80;;
10934;SDS011;5520;45.752;4.874;2023-08-12T00:10:56;7.07;;;1.80;;
10934;SDS011;5520;45.752;4.874;2023-08-12T00:13:24;3.15;;;2.08;;
10934;SDS011;5520;45.752;4.874;2023-08-12T00:15:52;3.95;;;2.20;;
10934;SDS011;5520;45.752;4.874;2023-08-12T00:18:20;2.30;;;2.08;;
10934;SDS011;5520;45.752;4.874;2023-08-12T00:20:47;3.45;;;2.05;;
10934;SDS011;5520;45.752;4.874;2023-08-12T00:23:15;3.25;;;1.73;;
10934;SDS011;5520;45.752;4.874;2023-08-12T00:25:43;2.83;;;2.55;;
10934;SDS011;5520;45.752;4.874;2023-08-12T00:28:12;1.85;;;1.75;;
10934;SDS011;5520;45.752;4.874;2023-08-12T00:30:40;4.13;;;2.13;;
10934;SDS011;5520;45.752;4.874;2023-08-12T00:33:07;2.38;;;2.00;;
10934;SDS011;5520;45.752;4.874;2023-08-12T00:35:35;3.63;;;2.20;;
10934;SDS011;5520;45.752;4.874;2023-08-12T00:38:03;2.30;;;2.05;;
10934;SDS011;5520;45.752;4.874;2023-08-12T00:40:31;3.05;;;1.90;;
10934;SDS011;5520;45.752;4.874;2023-08-12T00:42:59;2.30;;;1.88;;
10934;SDS011;5520;45.752;4.874;2023-08-12T00:45:28;2.60;;;1.80;;
10934;SDS011;5520;45.752;4.874;2023-08-12T00:47:56;2.90;;;2.20;;
10934;SDS011;5520;45.752;4.874;2023-08-12T00:50:24;2.50;;;2.30;;
10934;SDS011;5520;45.752;4.874;2023-08-12T00:52:51;4.55;;;1.98;;
10934;SDS011;5520;45.752;4.874;2023-08-12T00:55:19;3.95;;;2.38;;
10934;SDS011;5520;45.752;4.874;2023-08-12T00:57:48;2.10;;;1.77;;
10934;SDS011;5520;45.752;4.874;2023-08-12T01:00:16;3.53;;;2.08;;
10934;SDS011;5520;45.752;4.874;2023-08-12T01:02:47;5.88;;;2.10;;
10934;SDS011;5520;45.752;4.874;2023-08-12T01:05:16;2.97;;;1.70;;
10934;SDS011;5520;45.752;4.874;2023-08-12T01:07:44;5.20;;;2.10;;
10934;SDS011;5520;45.752;4.874;2023-08-12T01:10:12;2.28;;;2.08;;
10934;SDS011;5520;45.752;4.874;2023-08-12T01:12:43;5.28;;;2.10;;
10934;SDS011;5520;45.752;4.874;2023-08-12T01:15:13;3.97;;;1.92;;
10934;SDS011;5520;45.752;4.874;2023-08-12T01:17:42;3.00;;;1.73;;
10934;SDS011;5520;45.752;4.874;2023-08-12T01:20:12;2.90;;;1.88;;
10934;SDS011;5520;45.752;4.874;2023-08-12T01:22:41;4.53;;;1.92;;
10934;SDS011;5520;45.752;4.874;2023-08-12T01:25:10;4.78;;;2.10;;
10934;SDS011;5520;45.752;4.874;2023-08-12T01:27:38;2.47;;;1.85;;
10934;SDS011;5520;45.752;4.874;2023-08-12T01:30:06;3.88;;;2.10;;
10934;SDS011;5520;45.752;4.874;2023-08-12T01:32:39;4.85;;;1.73;;
10934;SDS011;5520;45.752;4.874;2023-08-12T01:35:09;3.58;;;2.25;;
10934;SDS011;5520;45.752;4.874;2023-08-12T01:37:38;2.35;;;2.08;;
10934;SDS011;5520;45.752;4.874;2023-08-12T01:40:07;1.98;;;1.60;;
10934;SDS011;5520;45.752;4.874;2023-08-12T01:42:38;1.98;;;1.80;;
10934;SDS011;5520;45.752;4.874;2023-08-12T01:45:07;3.35;;;1.80;;
10934;SDS011;5520;45.752;4.874;2023-08-12T01:47:34;7.78;;;2.22;;
10934;SDS011;5520;45.752;4.874;2023-08-12T01:50:02;3.28;;;2.08;;
10934;SDS011;5520;45.752;4.874;2023-08-12T01:52:30;2.97;;;1.98;;
10934;SDS011;5520;45.752;4.874;2023-08-12T01:54:58;4.55;;;1.90;;
10934;SDS011;5520;45.752;4.874;2023-08-12T01:57:26;2.20;;;2.00;;
10934;SDS011;5520;45.752;4.874;2023-08-12T01:59:55;3.97;;;1.90;;
10934;SDS011;5520;45.752;4.874;2023-08-12T02:02:22;3.85;;;1.95;;
10934;SDS011;5520;45.752;4.874;2023-08-12T02:04:50;1.70;;;1.60;;
10934;SDS011;5520;45.752;4.874;2023-08-12T02:07:18;4.70;;;2.72;;
10934;SDS011;5520;45.752;4.874;2023-08-12T02:09:46;2.50;;;1.73;;
10934;SDS011;5520;45.752;4.874;2023-08-12T02:12:13;3.65;;;2.40;;
10934;SDS011;5520;45.752;4.874;2023-08-12T02:14:41;2.70;;;1.77;;
10934;SDS011;5520;45.752;4.874;2023-08-12T02:17:10;2.55;;;1.75;;
10934;SDS011;5520;45.752;4.874;2023-08-12T02:19:38;3.03;;;1.98;;
10934;SDS011;5520;45.752;4.874;2023-08-12T02:22:06;2.22;;;2.03;;
10934;SDS011;5520;45.752;4.874;2023-08-12T02:24:34;4.32;;;1.88;;
10934;SDS011;5520;45.752;4.874;2023-08-12T02:27:01;1.70;;;1.60;;
10934;SDS011;5520;45.752;4.874;2023-08-12T02:29:30;4.47;;;2.35;;
10934;SDS011;5520;45.752;4.874;2023-08-12T02:31:57;2.20;;;2.00;;
10934;SDS011;5520;45.752;4.874;2023-08-12T02:34:26;2.92;;;2.03;;
10934;SDS011;5520;45.752;4.874;2023-08-12T02:36:54;4.28;;;1.95;;
10934;SDS011;5520;45.752;4.874;2023-08-12T02:39:22;6.53;;;2.20;;
10934;SDS011;5520;45.752;4.874;2023-08-12T02:41:50;3.97;;;2.03;;
10934;SDS011;5520;45.752;4.874;2023-08-12T02:44:17;5.60;;;2.17;;
10934;SDS011;5520;45.752;4.874;2023-08-12T02:46:45;4.85;;;1.98;;
10934;SDS011;5520;45.752;4.874;2023-08-12T02:49:13;2.50;;;1.95;;
10934;SDS011;5520;45.752;4.874;2023-08-12T02:51:42;2.95;;;1.67;;
10934;SDS011;5520;45.752;4.874;2023-08-12T02:54:10;3.85;;;1.90;;
10934;SDS011;5520;45.752;4.874;2023-08-12T02:56:37;3.05;;;2.00;;
10934;SDS011;5520;45.752;4.874;2023-08-12T02:59:05;3.00;;;1.73;;
10934;SDS011;5520;45.752;4.874;2023-08-12T03:01:33;1.97;;;1.77;;
10934;SDS011;5520;45.752;4.874;2023-08-12T03:04:01;3.75;;;1.75;;
10934;SDS011;5520;45.752;4.874;2023-08-12T03:06:29;3.17;;;1.90;;
10934;SDS011;5520;45.752;4.874;2023-08-12T03:08:58;4.10;;;2.20;;
10934;SDS011;5520;45.752;4.874;2023-08-12T03:11:26;4.22;;;1.73;;
10934;SDS011;5520;45.752;4.874;2023-08-12T03:13:54;2.75;;;1.70;;
10934;SDS011;5520;45.752;4.874;2023-08-12T03:16:22;2.50;;;2.08;;
10934;SDS011;5520;45.752;4.874;2023-08-12T03:18:49;3.67;;;1.77;;
10934;SDS011;5520;45.752;4.874;2023-08-12T03:21:17;3.38;;;2.10;;
10934;SDS011;5520;45.752;4.874;2023-08-12T03:23:45;3.53;;;1.97;;
10934;SDS011;5520;45.752;4.874;2023-08-12T03:26:14;2.30;;;2.10;;
10934;SDS011;5520;45.752;4.874;2023-08-12T03:28:42;3.20;;;1.85;;
10934;SDS011;5520;45.752;4.874;2023-08-12T03:31:10;2.53;;;1.75;;
10934;SDS011;5520;45.752;4.874;2023-08-12T03:33:37;3.95;;;1.95;;
10934;SDS011;5520;45.752;4.874;2023-08-12T03:36:05;3.55;;;2.08;;
10934;SDS011;5520;45.752;4.874;2023-08-12T03:38:33;4.43;;;1.83;;
10934;SDS011;5520;45.752;4.874;2023-08-12T03:41:02;2.73;;;1.70;;
10934;SDS011;5520;45.752;4.874;2023-08-12T03:43:31;5.87;;;1.60;;
10934;SDS011;5520;45.752;4.874;2023-08-12T03:46:00;3.42;;;1.77;;
10934;SDS011;5520;45.752;4.874;2023-08-12T03:48:27;2.20;;;2.00;;
10934;SDS011;5520;45.752;4.874;2023-08-12T03:50:55;2.17;;;1.80;;
10934;SDS011;5520;45.752;4.874;2023-08-12T03:53:23;2.33;;;1.70;;
10934;SDS011;5520;45.752;4.874;2023-08-12T03:55:51;2.67;;;1.93;;
10934;SDS011;5520;45.752;4.874;2023-08-12T03:58:18;2.38;;;1.80;;
10934;SDS011;5520;45.752;4.874;2023-08-12T04:00:48;2.47;;;1.60;;
10934;SDS011;5520;45.752;4.874;2023-08-12T04:03:16;2.57;;;1.70;;
10934;SDS011;5520;45.752;4.874;2023-08-12T04:05:47;1.87;;;1.70;;
10934;SDS011;5520;45.752;4.874;2023-08-12T04:08:15;2.83;;;1.80;;
10934;SDS011;5520;45.752;4.874;2023-08-12T04:10:44;3.17;;;1.73;;
10934;SDS011;5520;45.752;4.874;2023-08-12T04:13:12;2.30;;;1.90;;
10934;SDS011;5520;45.752;4.874;2023-08-12T04:15:39;1.90;;;1.70;;
10934;SDS011;5520;45.752;4.874;2023-08-12T04:18:08;2.57;;;1.80;;
10934;SDS011;5520;45.752;4.874;2023-08-12T04:20:37;3.10;;;1.97;;
10934;SDS011;5520;45.752;4.874;2023-08-12T04:23:04;5.10;;;2.20;;
10934;SDS011;5520;45.752;4.874;2023-08-12T04:25:32;1.87;;;1.77;;
10934;SDS011;5520;45.752;4.874;2023-08-12T04:28:00;5.27;;;1.90;;
10934;SDS011;5520;45.752;4.874;2023-08-12T04:30:28;1.95;;;1.70;;
10934;SDS011;5520;45.752;4.874;2023-08-12T04:32:55;4.73;;;2.00;;
10934;SDS011;5520;45.752;4.874;2023-08-12T04:35:24;3.83;;;1.80;;
10934;SDS011;5520;45.752;4.874;2023-08-12T04:37:52;3.73;;;2.00;;
10934;SDS011;5520;45.752;4.874;2023-08-12T04:40:20;3.50;;;2.10;;
10934;SDS011;5520;45.752;4.874;2023-08-12T04:42:49;3.17;;;2.27;;
10934;SDS011;5520;45.752;4.874;2023-08-12T04:45:16;5.57;;;3.97;;
10934;SDS011;5520;45.752;4.874;2023-08-12T04:47:44;7.27;;;3.83;;
10934;SDS011;5520;45.752;4.874;2023-08-12T04:50:13;6.63;;;4.13;;
10934;SDS011;5520;45.752;4.874;2023-08-12T04:52:43;6.37;;;3.63;;
10934;SDS011;5520;45.752;4.874;2023-08-12T04:55:11;5.23;;;3.50;;
10934;SDS011;5520;45.752;4.874;2023-08-12T04:57:40;6.10;;;3.20;;
10934;SDS011;5520;45.752;4.874;2023-08-12T05:00:08;4.57;;;3.10;;
10934;SDS011;5520;45.752;4.874;2023-08-12T05:02:36;4.00;;;2.43;;
10934;SDS011;5520;45.752;4.874;2023-08-12T05:05:04;5.80;;;2.47;;
10934;SDS011;5520;45.752;4.874;2023-08-12T05:07:33;3.87;;;1.70;;
10934;SDS011;5520;45.752;4.874;2023-08-12T05:10:05;3.67;;;2.50;;
10934;SDS011;5520;45.752;4.874;2023-08-12T05:12:33;4.03;;;1.80;;
10934;SDS011;5520;45.752;4.874;2023-08-12T05:15:01;6.23;;;2.07;;
10934;SDS011;5520;45.752;4.874;2023-08-12T05:17:29;3.63;;;1.70;;
10934;SDS011;5520;45.752;4.874;2023-08-12T05:19:57;3.37;;;2.00;;
10934;SDS011;5520;45.752;4.874;2023-08-12T05:22:24;3.20;;;2.57;;
10934;SDS011;5520;45.752;4.874;2023-08-12T05:24:52;3.40;;;2.10;;
10934;SDS011;5520;45.752;4.874;2023-08-12T05:27:21;4.33;;;2.07;;
10934;SDS011;5520;45.752;4.874;2023-08-12T05:29:49;3.47;;;2.00;;
10934;SDS011;5520;45.752;4.874;2023-08-12T05:32:16;4.80;;;2.20;;
10934;SDS011;5520;45.752;4.874;2023-08-12T05:34:44;2.53;;;1.87;;
10934;SDS011;5520;45.752;4.874;2023-08-12T05:37:12;3.20;;;1.33;;
10934;SDS011;5520;45.752;4.874;2023-08-12T05:39:40;3.37;;;1.97;;
10934;SDS011;5520;45.752;4.874;2023-08-12T05:42:07;2.97;;;1.70;;
10934;SDS011;5520;45.752;4.874;2023-08-12T05:44:37;5.83;;;1.83;;
10934;SDS011;5520;45.752;4.874;2023-08-12T05:47:05;2.27;;;1.70;;
10934;SDS011;5520;45.752;4.874;2023-08-12T05:49:33;2.23;;;1.80;;
10934;SDS011;5520;45.752;4.874;2023-08-12T05:52:01;3.60;;;2.10;;
10934;SDS011;5520;45.752;4.874;2023-08-12T05:54:29;6.40;;;1.97;;
10934;SDS011;5520;45.752;4.874;2023-08-12T05:56:57;5.03;;;1.83;;
10934;SDS011;5520;45.752;4.874;2023-08-12T05:59:25;1.80;;;1.70;;
10934;SDS011;5520;45.752;4.874;2023-08-12T06:01:55;2.07;;;1.83;;
10934;SDS011;5520;45.752;4.874;2023-08-12T06:04:22;3.53;;;1.70;;
10934;SDS011;5520;45.752;4.874;2023-08-12T06:06:51;3.20;;;2.30;;
10934;SDS011;5520;45.752;4.874;2023-08-12T06:09:19;2.50;;;2.03;;
10934;SDS011;5520;45.752;4.874;2023-08-12T06:11:46;2.10;;;1.83;;
10934;SDS011;5520;45.752;4.874;2023-08-12T06:14:14;1.98;;;1.65;;
10934;SDS011;5520;45.752;4.874;2023-08-12T06:16:42;2.77;;;2.00;;
10934;SDS011;5520;45.752;4.874;2023-08-12T06:19:11;4.30;;;1.85;;
10934;SDS011;5520;45.752;4.874;2023-08-12T06:21:38;3.00;;;1.77;;
10934;SDS011;5520;45.752;4.874;2023-08-12T06:24:06;2.00;;;1.80;;
10934;SDS011;5520;45.752;4.874;2023-08-12T06:26:34;3.25;;;2.30;;
10934;SDS011;5520;45.752;4.874;2023-08-12T06:29:02;4.10;;;2.00;;
10934;SDS011;5520;45.752;4.874;2023-08-12T06:31:31;2.45;;;2.03;;
10934;SDS011;5520;45.752;4.874;2023-08-12T06:33:59;3.15;;;1.83;;
10934;SDS011;5520;45.752;4.874;2023-08-12T06:36:29;2.08;;;1.88;;
10934;SDS011;5520;45.752;4.874;2023-08-12T06:38:57;3.17;;;1.80;;
10934;SDS011;5520;45.752;4.874;2023-08-12T06:41:24;2.85;;;2.28;;
10934;SDS011;5520;45.752;4.874;2023-08-12T06:43:52;2.22;;;1.65;;
10934;SDS011;5520;45.752;4.874;2023-08-12T06:46:20;2.83;;;1.77;;
10934;SDS011;5520;45.752;4.874;2023-08-12T06:48:48;4.53;;;2.10;;
10934;SDS011;5520;45.752;4.874;2023-08-12T06:51:15;3.75;;;2.00;;
10934;SDS011;5520;45.752;4.874;2023-08-12T06:53:44;5.03;;;2.05;;
10934;SDS011;5520;45.752;4.874;2023-08-12T06:56:12;3.10;;;1.65;;
10934;SDS011;5520;45.752;4.874;2023-08-12T06:58:40;4.93;;;2.22;;
10934;SDS011;5520;45.752;4.874;2023-08-12T07:01:08;3.30;;;2.17;;
10934;SDS011;5520;45.752;4.874;2023-08-12T07:03:39;3.38;;;2.03;;
10934;SDS011;5520;45.752;4.874;2023-08-12T07:06:08;3.60;;;2.53;;
10934;SDS011;5520;45.752;4.874;2023-08-12T07:08:35;3.53;;;2.10;;
10934;SDS011;5520;45.752;4.874;2023-08-12T07:11:04;7.03;;;1.92;;
10934;SDS011;5520;45.752;4.874;2023-08-12T07:13:32;2.00;;;1.90;;
10934;SDS011;5520;45.752;4.874;2023-08-12T07:16:00;2.38;;;2.00;;
10934;SDS011;5520;45.752;4.874;2023-08-12T07:18:28;3.38;;;1.90;;
10934;SDS011;5520;45.752;4.874;2023-08-12T07:20:56;6.60;;;2.03;;
10934;SDS011;5520;45.752;4.874;2023-08-12T07:23:24;3.80;;;2.00;;
10934;SDS011;5520;45.752;4.874;2023-08-12T07:25:53;4.88;;;2.13;;
10934;SDS011;5520;45.752;4.874;2023-08-12T07:28:22;3.72;;;2.00;;
10934;SDS011;5520;45.752;4.874;2023-08-12T07:30:50;4.95;;;2.10;;
10934;SDS011;5520;45.752;4.874;2023-08-12T07:33:19;5.30;;;2.28;;
10934;SDS011;5520;45.752;4.874;2023-08-12T07:35:47;4.13;;;2.50;;
10934;SDS011;5520;45.752;4.874;2023-08-12T07:38:15;4.57;;;2.47;;
10934;SDS011;5520;45.752;4.874;2023-08-12T07:40:42;2.65;;;2.13;;
10934;SDS011;5520;45.752;4.874;2023-08-12T07:43:10;3.65;;;2.25;;
10934;SDS011;5520;45.752;4.874;2023-08-12T07:45:39;2.58;;;2.38;;
10934;SDS011;5520;45.752;4.874;2023-08-12T07:48:07;5.63;;;2.50;;
10934;SDS011;5520;45.752;4.874;2023-08-12T07:50:35;4.25;;;2.58;;
10934;SDS011;5520;45.752;4.874;2023-08-12T07:53:03;3.50;;;2.35;;
10934;SDS011;5520;45.752;4.874;2023-08-12T07:55:31;4.47;;;2.25;;
10934;SDS011;5520;45.752;4.874;2023-08-12T07:57:58;2.80;;;2.13;;
10934;SDS011;5520;45.752;4.874;2023-08-12T08:00:26;3.53;;;2.30;;
10934;SDS011;5520;45.752;4.874;2023-08-12T08:02:55;2.90;;;2.05;;
10934;SDS011;5520;45.752;4.874;2023-08-12T08:05:24;3.20;;;2.20;;
10934;SDS011;5520;45.752;4.874;2023-08-12T08:07:51;3.05;;;2.20;;
10934;SDS011;5520;45.752;4.874;2023-08-12T08:10:19;2.53;;;1.98;;
10934;SDS011;5520;45.752;4.874;2023-08-12T08:12:47;3.47;;;2.20;;
10934;SDS011;5520;45.752;4.874;2023-08-12T08:15:14;3.78;;;1.95;;
10934;SDS011;5520;45.752;4.874;2023-08-12T08:17:42;3.70;;;2.63;;
10934;SDS011;5520;45.752;4.874;2023-08-12T08:20:12;4.38;;;2.00;;
10934;SDS011;5520;45.752;4.874;2023-08-12T08:22:39;2.55;;;2.25;;
10934;SDS011;5520;45.752;4.874;2023-08-12T08:25:07;2.40;;;1.90;;
10934;SDS011;5520;45.752;4.874;2023-08-12T08:27:35;4.03;;;2.35;;
10934;SDS011;5520;45.752;4.874;2023-08-12T08:30:03;5.22;;;2.30;;
10934;SDS011;5520;45.752;4.874;2023-08-12T08:32:31;3.88;;;2.80;;
10934;SDS011;5520;45.752;4.874;2023-08-12T08:34:59;2.92;;;2.22;;
10934;SDS011;5520;45.752;4.874;2023-08-12T08:37:28;6.90;;;2.33;;
10934;SDS011;5520;45.752;4.874;2023-08-12T08:39:56;3.10;;;2.40;;
10934;SDS011;5520;45.752;4.874;2023-08-12T08:42:24;4.28;;;2.47;;
10934;SDS011;5520;45.752;4.874;2023-08-12T08:44:52;4.25;;;2.45;;
10934;SDS011;5520;45.752;4.874;2023-08-12T08:47:22;2.60;;;2.30;;
10934;SDS011;5520;45.752;4.874;2023-08-12T08:49:52;5.65;;;3.47;;
10934;SDS011;5520;45.752;4.874;2023-08-12T08:52:20;3.17;;;2.50;;
10934;SDS011;5520;45.752;4.874;2023-08-12T08:54:50;3.45;;;2.67;;
10934;SDS011;5520;45.752;4.874;2023-08-12T08:57:18;3.58;;;2.47;;
10934;SDS011;5520;45.752;4.874;2023-08-12T09:00:05;3.22;;;2.00;;
10934;SDS011;5520;45.752;4.874;2023-08-12T09:02:42;3.47;;;2.20;;
10934;SDS011;5520;45.752;4.874;2023-08-12T09:05:10;2.97;;;2.47;;
10934;SDS011;5520;45.752;4.874;2023-08-12T09:07:38;3.00;;;2.28;;
10934;SDS011;5520;45.752;4.874;2023-08-12T09:10:08;2.65;;;2.22;;
10934;SDS011;5520;45.752;4.874;2023-08-12T09:12:40;4.40;;;2.38;;
10934;SDS011;5520;45.752;4.874;2023-08-12T09:15:08;2.58;;;2.05;;
10934;SDS011;5520;45.752;4.874;2023-08-12T09:17:37;3.40;;;2.38;;
10934;SDS011;5520;45.752;4.874;2023-08-12T09:20:05;4.03;;;2.78;;
10934;SDS011;5520;45.752;4.874;2023-08-12T09:22:37;4.82;;;2.67;;
10934;SDS011;5520;45.752;4.874;2023-08-12T09:25:06;4.40;;;2.70;;
10934;SDS011;5520;45.752;4.874;2023-08-12T09:27:36;4.13;;;2.58;;
10934;SDS011;5520;45.752;4.874;2023-08-12T09:30:05;3.92;;;2.78;;
10934;SDS011;5520;45.752;4.874;2023-08-12T09:32:34;3.03;;;2.80;;
10934;SDS011;5520;45.752;4.874;2023-08-12T09:35:02;7.03;;;2.80;;
10934;SDS011;5520;45.752;4.874;2023-08-12T09:37:32;6.35;;;3.45;;
10934;SDS011;5520;45.752;4.874;2023-08-12T09:39:59;5.85;;;2.88;;
10934;SDS011;5520;45.752;4.874;2023-08-12T09:42:31;3.63;;;2.35;;
10934;SDS011;5520;45.752;4.874;2023-08-12T09:45:02;6.07;;;2.75;;
10934;SDS011;5520;45.752;4.874;2023-08-12T09:47:29;5.95;;;2.58;;
10934;SDS011;5520;45.752;4.874;2023-08-12T09:49:57;3.88;;;2.30;;
10934;SDS011;5520;45.752;4.874;2023-08-12T09:52:26;3.15;;;2.42;;
10934;SDS011;5520;45.752;4.874;2023-08-12T09:54:54;4.57;;;2.40;;
10934;SDS011;5520;45.752;4.874;2023-08-12T09:57:24;5.88;;;2.78;;
10934;SDS011;5520;45.752;4.874;2023-08-12T09:59:53;3.30;;;2.30;;
10934;SDS011;5520;45.752;4.874;2023-08-12T10:02:22;5.93;;;2.55;;
10934;SDS011;5520;45.752;4.874;2023-08-12T10:04:50;2.83;;;2.38;;
10934;SDS011;5520;45.752;4.874;2023-08-12T10:07:22;4.38;;;2.70;;
10934;SDS011;5520;45.752;4.874;2023-08-12T10:09:50;6.68;;;3.00;;
10934;SDS011;5520;45.752;4.874;2023-08-12T10:12:18;4.05;;;2.53;;
10934;SDS011;5520;45.752;4.874;2023-08-12T10:14:47;4.35;;;2.28;;
10934;SDS011;5520;45.752;4.874;2023-08-12T10:17:15;3.83;;;2.58;;
10934;SDS011;5520;45.752;4.874;2023-08-12T10:20:05;7.63;;;3.25;;
10934;SDS011;5520;45.752;4.874;2023-08-12T10:22:34;5.15;;;2.50;;
10934;SDS011;5520;45.752;4.874;2023-08-12T10:25:02;5.03;;;2.90;;
10934;SDS011;5520;45.752;4.874;2023-08-12T10:27:31;4.20;;;2.47;;
10934;SDS011;5520;45.752;4.874;2023-08-12T10:29:59;5.53;;;2.50;;
10934;SDS011;5520;45.752;4.874;2023-08-12T10:32:30;4.53;;;2.80;;
10934;SDS011;5520;45.752;4.874;2023-08-12T10:34:58;2.92;;;2.20;;
10934;SDS011;5520;45.752;4.874;2023-08-12T10:37:30;3.25;;;2.53;;
10934;SDS011;5520;45.752;4.874;2023-08-12T10:39:59;7.55;;;2.88;;
10934;SDS011;5520;45.752;4.874;2023-08-12T10:42:42;4.10;;;2.55;;
10934;SDS011;5520;45.752;4.874;2023-08-12T10:45:10;4.60;;;2.70;;
10934;SDS011;5520;45.752;4.874;2023-08-12T10:47:39;4.80;;;2.88;;
10934;SDS011;5520;45.752;4.874;2023-08-12T10:50:15;4.63;;;2.65;;
10934;SDS011;5520;45.752;4.874;2023-08-12T10:52:45;5.45;;;2.72;;
10934;SDS011;5520;45.752;4.874;2023-08-12T10:55:16;3.38;;;2.70;;
10934;SDS011;5520;45.752;4.874;2023-08-12T10:57:44;5.00;;;2.92;;
10934;SDS011;5520;45.752;4.874;2023-08-12T11:00:13;4.80;;;3.75;;
10934;SDS011;5520;45.752;4.874;2023-08-12T11:02:43;5.72;;;3.00;;
10934;SDS011;5520;45.752;4.874;2023-08-12T11:05:12;5.72;;;3.70;;
10934;SDS011;5520;45.752;4.874;2023-08-12T11:07:41;7.22;;;4.13;;
10934;SDS011;5520;45.752;4.874;2023-08-12T11:10:11;6.70;;;4.00;;
10934;SDS011;5520;45.752;4.874;2023-08-12T11:12:40;4.82;;;4.32;;
10934;SDS011;5520;45.752;4.874;2023-08-12T11:15:08;5.57;;;2.97;;
10934;SDS011;5520;45.752;4.874;2023-08-12T11:17:38;5.72;;;3.97;;
10934;SDS011;5520;45.752;4.874;2023-08-12T11:20:06;3.90;;;2.33;;
10934;SDS011;5520;45.752;4.874;2023-08-12T11:22:36;4.32;;;2.75;;
10934;SDS011;5520;45.752;4.874;2023-08-12T11:25:05;5.50;;;2.72;;
10934;SDS011;5520;45.752;4.874;2023-08-12T11:27:37;2.95;;;2.33;;
10934;SDS011;5520;45.752;4.874;2023-08-12T11:30:05;5.50;;;3.22;;
10934;SDS011;5520;45.752;4.874;2023-08-12T11:32:33;8.73;;;2.92;;
10934;SDS011;5520;45.752;4.874;2023-08-12T11:35:02;3.80;;;2.65;;
10934;SDS011;5520;45.752;4.874;2023-08-12T11:37:30;5.97;;;2.88;;
10934;SDS011;5520;45.752;4.874;2023-08-12T11:39:58;3.13;;;2.40;;
10934;SDS011;5520;45.752;4.874;2023-08-12T11:42:26;7.53;;;2.88;;
10934;SDS011;5520;45.752;4.874;2023-08-12T11:44:55;3.25;;;2.72;;
10934;SDS011;5520;45.752;4.874;2023-08-12T11:47:23;4.68;;;3.20;;
10934;SDS011;5520;45.752;4.874;2023-08-12T11:49:51;3.25;;;2.45;;
10934;SDS011;5520;45.752;4.874;2023-08-12T11:52:19;4.22;;;2.70;;
10934;SDS011;5520;45.752;4.874;2023-08-12T11:54:48;4.63;;;2.72;;
10934;SDS011;5520;45.752;4.874;2023-08-12T11:57:16;4.00;;;2.63;;
10934;SDS011;5520;45.752;4.874;2023-08-12T11:59:44;3.50;;;2.70;;
10934;SDS011;5520;45.752;4.874;2023-08-12T12:02:13;7.60;;;2.92;;
10934;SDS011;5520;45.752;4.874;2023-08-12T12:04:45;10.45;;;3.45;;
10934;SDS011;5520;45.752;4.874;2023-08-12T12:07:19;4.38;;;2.88;;
10934;SDS011;5520;45.752;4.874;2023-08-12T12:09:50;5.38;;;2.88;;
10934;SDS011;5520;45.752;4.874;2023-08-12T12:12:18;2.92;;;2.63;;
10934;SDS011;5520;45.752;4.874;2023-08-12T12:14:46;7.38;;;3.42;;
10934;SDS011;5520;45.752;4.874;2023-08-12T12:17:15;4.43;;;3.13;;
10934;SDS011;5520;45.752;4.874;2023-08-12T12:19:43;4.68;;;2.92;;
10934;SDS011;5520;45.752;4.874;2023-08-12T12:22:11;7.32;;;3.20;;
10934;SDS011;5520;45.752;4.874;2023-08-12T12:24:43;6.32;;;3.60;;
10934;SDS011;5520;45.752;4.874;2023-08-12T12:27:11;7.13;;;3.05;;
10934;SDS011;5520;45.752;4.874;2023-08-12T12:29:39;3.83;;;3.28;;
10934;SDS011;5520;45.752;4.874;2023-08-12T12:32:08;5.95;;;3.13;;
10934;SDS011;5520;45.752;4.874;2023-08-12T12:34:38;3.63;;;3.00;;
10934;SDS011;5520;45.752;4.874;2023-08-12T12:37:06;7.05;;;3.70;;
10934;SDS011;5520;45.752;4.874;2023-08-12T12:39:34;3.42;;;3.13;;
10934;SDS011;5520;45.752;4.874;2023-08-12T12:42:02;5.20;;;3.10;;
10934;SDS011;5520;45.752;4.874;2023-08-12T12:44:30;3.63;;;2.95;;
10934;SDS011;5520;45.752;4.874;2023-08-12T12:46:58;3.55;;;3.17;;
10934;SDS011;5520;45.752;4.874;2023-08-12T12:49:29;3.40;;;3.10;;
10934;SDS011;5520;45.752;4.874;2023-08-12T12:51:58;4.57;;;3.03;;
10934;SDS011;5520;45.752;4.874;2023-08-12T12:54:26;8.40;;;3.13;;
10934;SDS011;5520;45.752;4.874;2023-08-12T12:56:54;5.25;;;3.17;;
10934;SDS011;5520;45.752;4.874;2023-08-12T12:59:21;5.05;;;3.05;;
10934;SDS011;5520;45.752;4.874;2023-08-12T13:01:49;5.60;;;2.92;;
10934;SDS011;5520;45.752;4.874;2023-08-12T13:04:18;7.82;;;3.22;;
10934;SDS011;5520;45.752;4.874;2023-08-12T13:06:49;6.30;;;3.47;;
10934;SDS011;5520;45.752;4.874;2023-08-12T13:09:19;8.30;;;3.60;;
10934;SDS011;5520;45.752;4.874;2023-08-12T13:11:47;4.57;;;2.97;;
10934;SDS011;5520;45.752;4.874;2023-08-12T13:14:15;6.00;;;3.50;;
10934;SDS011;5520;45.752;4.874;2023-08-12T13:16:45;3.25;;;2.88;;
10934;SDS011;5520;45.752;4.874;2023-08-12T13:19:13;4.75;;;3.00;;
10934;SDS011;5520;45.752;4.874;2023-08-12T13:21:41;6.57;;;2.78;;
10934;SDS011;5520;45.752;4.874;2023-08-12T13:24:09;4.70;;;3.20;;
10934;SDS011;5520;45.752;4.874;2023-08-12T13:26:38;4.60;;;3.65;;
10934;SDS011;5520;45.752;4.874;2023-08-12T13:29:06;6.40;;;3.30;;
10934;SDS011;5520;45.752;4.874;2023-08-12T13:31:35;4.55;;;3.08;;
10934;SDS011;5520;45.752;4.874;2023-08-12T13:34:03;3.80;;;3.35;;
10934;SDS011;5520;45.752;4.874;2023-08-12T13:36:31;4.53;;;3.17;;
10934;SDS011;5520;45.752;4.874;2023-08-12T13:39:01;5.70;;;3.60;;
10934;SDS011;5520;45.752;4.874;2023-08-12T13:41:29;5.00;;;3.10;;
10934;SDS011;5520;45.752;4.874;2023-08-12T13:43:59;4.07;;;3.17;;
10934;SDS011;5520;45.752;4.874;2023-08-12T13:46:27;4.05;;;2.78;;
10934;SDS011;5520;45.752;4.874;2023-08-12T13:48:56;5.18;;;2.83;;
10934;SDS011;5520;45.752;4.874;2023-08-12T13:51:25;3.72;;;3.08;;
10934;SDS011;5520;45.752;4.874;2023-08-12T13:53:53;6.25;;;3.08;;
10934;SDS011;5520;45.752;4.874;2023-08-12T13:56:21;3.38;;;2.88;;
10934;SDS011;5520;45.752;4.874;2023-08-12T13:58:49;6.18;;;3.15;;
10934;SDS011;5520;45.752;4.874;2023-08-12T14:01:19;4.05;;;3.13;;
10934;SDS011;5520;45.752;4.874;2023-08-12T14:03:49;10.05;;;3.28;;
10934;SDS011;5520;45.752;4.874;2023-08-12T14:06:17;5.18;;;2.90;;
10934;SDS011;5520;45.752;4.874;2023-08-12T14:08:46;6.03;;;3.25;;
10934;SDS011;5520;45.752;4.874;2023-08-12T14:11:14;3.75;;;3.08;;
10934;SDS011;5520;45.752;4.874;2023-08-12T14:13:43;4.80;;;3.10;;
10934;SDS011;5520;45.752;4.874;2023-08-12T14:16:12;5.18;;;3.10;;
10934;SDS011;5520;45.752;4.874;2023-08-12T14:18:42;5.28;;;3.45;;
10934;SDS011;5520;45.752;4.874;2023-08-12T14:21:10;10.82;;;3.20;;
10934;SDS011;5520;45.752;4.874;2023-08-12T14:23:38;3.47;;;2.90;;
10934;SDS011;5520;45.752;4.874;2023-08-12T14:26:06;5.03;;;3.00;;
10934;SDS011;5520;45.752;4.874;2023-08-12T14:28:36;5.82;;;2.80;;
10934;SDS011;5520;45.752;4.874;2023-08-12T14:31:04;4.75;;;2.83;;
10934;SDS011;5520;45.752;4.874;2023-08-12T14:33:32;5.03;;;2.88;;
10934;SDS011;5520;45.752;4.874;2023-08-12T14:36:02;5.82;;;3.25;;
10934;SDS011;5520;45.752;4.874;2023-08-12T14:38:31;5.28;;;3.30;;
10934;SDS011;5520;45.752;4.874;2023-08-12T14:40:59;10.13;;;3.53;;
10934;SDS011;5520;45.752;4.874;2023-08-12T14:43:28;6.07;;;2.70;;
10934;SDS011;5520;45.752;4.874;2023-08-12T14:45:56;4.30;;;2.92;;
10934;SDS011;5520;45.752;4.874;2023-08-12T14:48:25;8.75;;;3.20;;
10934;SDS011;5520;45.752;4.874;2023-08-12T14:50:55;5.03;;;3.00;;
10934;SDS011;5520;45.752;4.874;2023-08-12T14:53:26;4.63;;;3.00;;
10934;SDS011;5520;45.752;4.874;2023-08-12T14:55:56;9.27;;;3.40;;
10934;SDS011;5520;45.752;4.874;2023-08-12T14:58:23;4.05;;;3.20;;
10934;SDS011;5520;45.752;4.874;2023-08-12T15:00:51;4.15;;;3.20;;
10934;SDS011;5520;45.752;4.874;2023-08-12T15:03:19;3.10;;;2.80;;
10934;SDS011;5520;45.752;4.874;2023-08-12T15:05:47;3.42;;;2.63;;
10934;SDS011;5520;45.752;4.874;2023-08-12T15:08:15;7.43;;;3.10;;